LKKV

Karlovy Vary International Airport

Karlovy Vary, Czech Republic
METAR LKKV 170700Z 22008KT 190V270 8000 -DZ SCT009 BKN011 02/01 Q1003 R29/29//95
Observed Flight Rules
Jan-17 @ 07:00 UTC (19 minutes ago) Marginal Visual Flight Rules
Wind Visibility Clouds Conditions
220° at 8 knots 7,998 meters
  • Scattered at 900' AGL
  • Broken at 1,100' AGL
  • Light Drizzle
Temperatures Readings
Current 2°C / 36°F
Dewpoint 1°C / 34°F
Humidity 93%
Altimeter 29.62" Hg
Pressure 1002.92 hPa
Elevation 604
METAR LKKV 170700Z 22008KT 190V270 8000 -DZ SCT009 BKN011 02/01 Q1003 R29/29//95
Observed Flight Rules
Jan-17 @ 07:00 UTC
(19 minutes ago)
MVFR
Wind Visibility
220° at 8 knots 7,998 meters
Clouds
  • Scattered at 900' AGL
  • Broken at 1,100' AGL
Conditions
  • Light Drizzle
Temperature Dewpoint
2°C / 36°F 1°C / 34°F
Humidity Altimeter Pressure
93% 29.62" Hg 1002.92 hPa